Fada Airport

Jump to: basic info | weather | comments

Related pages: nearby airports | nearby navaids | notams | map

Basic information (top)

Codes: FTTF
Location: lon 17.167000, lat 21.566999, elev 1,788 ft / 545 m msl
Status: small_airport

Weather (top)

Current conditions for Faya Largeau Airport 148nm (273km) WNW (rec'd 2014/04/20 15:00Z):

FTTY 201500Z 04021KT 4000 BLSA SKC 39/03 Q////

Airport forecast for Geneina Airport 227nm (421km) SSE (rec'd 2011/06/10 09:00Z):

TAF HSGN 100700Z 1009/1018 06006KT CAVOK 6000 HZ 
      TEMPO 1009/1012 32008KT CAVOK

Latest comments (top)

No comments yet for Fada Airport

More... (top)

See also NOTAMs and nearby airports and navaids, or visit the Fada Airport page at the main OurAirports website..